sensor_id;sensor_type;location;lat;lon;timestamp;temperature;humidity
69281;SHT31;56392;51.082;17.080;2023-04-06T00:04:12;1.27;74.60
69281;SHT31;56392;51.082;17.080;2023-04-06T00:09:35;1.20;74.82
69281;SHT31;56392;51.082;17.080;2023-04-06T00:15:00;1.22;74.97
69281;SHT31;56392;51.082;17.080;2023-04-06T00:20:24;1.15;75.18
69281;SHT31;56392;51.082;17.080;2023-04-06T00:25:47;1.12;75.04
69281;SHT31;56392;51.082;17.080;2023-04-06T00:31:11;1.12;75.05
69281;SHT31;56392;51.082;17.080;2023-04-06T00:36:35;1.09;75.45
69281;SHT31;56392;51.082;17.080;2023-04-06T00:41:58;1.09;75.78
69281;SHT31;56392;51.082;17.080;2023-04-06T00:47:23;1.06;75.63
69281;SHT31;56392;51.082;17.080;2023-04-06T00:52:47;1.02;75.59
69281;SHT31;56392;51.082;17.080;2023-04-06T00:58:10;1.02;75.73
69281;SHT31;56392;51.082;17.080;2023-04-06T01:03:35;0.97;75.47
69281;SHT31;56392;51.082;17.080;2023-04-06T01:08:58;0.82;75.43
69281;SHT31;56392;51.082;17.080;2023-04-06T01:14:21;0.78;75.72
69281;SHT31;56392;51.082;17.080;2023-04-06T01:19:46;0.72;75.69
69281;SHT31;56392;51.082;17.080;2023-04-06T01:25:12;0.73;75.97
69281;SHT31;56392;51.082;17.080;2023-04-06T01:30:35;0.69;75.57
69281;SHT31;56392;51.082;17.080;2023-04-06T01:35:58;0.61;75.27
69281;SHT31;56392;51.082;17.080;2023-04-06T01:41:23;0.58;75.30
69281;SHT31;56392;51.082;17.080;2023-04-06T01:46:46;0.50;75.23
69281;SHT31;56392;51.082;17.080;2023-04-06T01:52:09;0.50;75.04
69281;SHT31;56392;51.082;17.080;2023-04-06T01:57:34;0.50;74.89
69281;SHT31;56392;51.082;17.080;2023-04-06T02:02:57;0.47;74.80
69281;SHT31;56392;51.082;17.080;2023-04-06T02:08:20;0.38;75.00
69281;SHT31;56392;51.082;17.080;2023-04-06T02:13:44;0.36;74.95
69281;SHT31;56392;51.082;17.080;2023-04-06T02:19:08;0.31;75.00
69281;SHT31;56392;51.082;17.080;2023-04-06T02:24:31;0.31;74.84
69281;SHT31;56392;51.082;17.080;2023-04-06T02:29:55;0.30;74.91
69281;SHT31;56392;51.082;17.080;2023-04-06T02:35:18;0.24;74.87
69281;SHT31;56392;51.082;17.080;2023-04-06T02:40:41;0.24;75.21
69281;SHT31;56392;51.082;17.080;2023-04-06T02:46:05;0.25;75.06
69281;SHT31;56392;51.082;17.080;2023-04-06T02:51:29;0.15;75.26
69281;SHT31;56392;51.082;17.080;2023-04-06T02:56:52;0.13;75.26
69281;SHT31;56392;51.082;17.080;2023-04-06T03:02:16;0.15;75.34
69281;SHT31;56392;51.082;17.080;2023-04-06T03:07:39;0.11;75.23
69281;SHT31;56392;51.082;17.080;2023-04-06T03:13:04;0.09;74.82
69281;SHT31;56392;51.082;17.080;2023-04-06T03:18:28;-0.01;74.82
69281;SHT31;56392;51.082;17.080;2023-04-06T03:23:51;-0.09;75.15
69281;SHT31;56392;51.082;17.080;2023-04-06T03:29:14;-0.10;75.19
69281;SHT31;56392;51.082;17.080;2023-04-06T03:34:39;-0.09;75.23
69281;SHT31;56392;51.082;17.080;2023-04-06T03:40:05;-0.13;75.32
69281;SHT31;56392;51.082;17.080;2023-04-06T03:45:29;-0.15;75.01
69281;SHT31;56392;51.082;17.080;2023-04-06T03:50:53;-0.21;75.12
69281;SHT31;56392;51.082;17.080;2023-04-06T03:56:16;-0.30;75.43
69281;SHT31;56392;51.082;17.080;2023-04-06T04:01:39;-0.31;75.61
69281;SHT31;56392;51.082;17.080;2023-04-06T04:07:04;-0.32;75.25
69281;SHT31;56392;51.082;17.080;2023-04-06T04:12:27;-0.32;75.33
69281;SHT31;56392;51.082;17.080;2023-04-06T04:17:50;-0.28;75.39
69281;SHT31;56392;51.082;17.080;2023-04-06T04:23:14;-0.24;75.13
69281;SHT31;56392;51.082;17.080;2023-04-06T04:28:37;-0.27;75.17
69281;SHT31;56392;51.082;17.080;2023-04-06T04:34:00;-0.32;75.21
69281;SHT31;56392;51.082;17.080;2023-04-06T04:39:24;-0.35;75.30
69281;SHT31;56392;51.082;17.080;2023-04-06T04:44:48;-0.37;75.43
69281;SHT31;56392;51.082;17.080;2023-04-06T04:50:11;-0.25;75.38
69281;SHT31;56392;51.082;17.080;2023-04-06T04:55:35;-0.27;75.52
69281;SHT31;56392;51.082;17.080;2023-04-06T05:00:58;-0.25;75.57
69281;SHT31;56392;51.082;17.080;2023-04-06T05:06:22;-0.24;75.58
69281;SHT31;56392;51.082;17.080;2023-04-06T05:11:47;-0.22;75.71
69281;SHT31;56392;51.082;17.080;2023-04-06T05:17:10;-0.17;76.06
69281;SHT31;56392;51.082;17.080;2023-04-06T05:22:33;-0.07;76.41
69281;SHT31;56392;51.082;17.080;2023-04-06T05:27:57;0.04;76.77
69281;SHT31;56392;51.082;17.080;2023-04-06T05:33:21;0.15;77.36
69281;SHT31;56392;51.082;17.080;2023-04-06T05:38:44;0.20;77.83
69281;SHT31;56392;51.082;17.080;2023-04-06T05:44:08;0.31;77.92
69281;SHT31;56392;51.082;17.080;2023-04-06T05:49:31;0.48;78.58
69281;SHT31;56392;51.082;17.080;2023-04-06T05:54:57;0.61;78.50
69281;SHT31;56392;51.082;17.080;2023-04-06T06:00:22;0.71;78.85
69281;SHT31;56392;51.082;17.080;2023-04-06T06:05:45;0.78;79.06
69281;SHT31;56392;51.082;17.080;2023-04-06T06:11:08;0.97;78.81
69281;SHT31;56392;51.082;17.080;2023-04-06T06:16:33;1.07;78.61
69281;SHT31;56392;51.082;17.080;2023-04-06T06:21:56;1.31;78.16
69281;SHT31;56392;51.082;17.080;2023-04-06T06:27:20;1.63;77.63
69281;SHT31;56392;51.082;17.080;2023-04-06T06:32:44;1.81;77.03
69281;SHT31;56392;51.082;17.080;2023-04-06T06:38:08;2.08;76.82
69281;SHT31;56392;51.082;17.080;2023-04-06T06:43:31;2.32;76.05
69281;SHT31;56392;51.082;17.080;2023-04-06T06:48:55;2.56;75.46
69281;SHT31;56392;51.082;17.080;2023-04-06T06:54:18;2.76;74.77
69281;SHT31;56392;51.082;17.080;2023-04-06T06:59:41;3.04;74.85
69281;SHT31;56392;51.082;17.080;2023-04-06T07:05:06;3.26;75.21
69281;SHT31;56392;51.082;17.080;2023-04-06T07:10:30;3.54;75.29
69281;SHT31;56392;51.082;17.080;2023-04-06T07:15:53;3.72;74.16
69281;SHT31;56392;51.082;17.080;2023-04-06T07:21:17;3.96;74.09
69281;SHT31;56392;51.082;17.080;2023-04-06T07:26:41;4.30;73.69
69281;SHT31;56392;51.082;17.080;2023-04-06T07:32:04;4.58;72.94
69281;SHT31;56392;51.082;17.080;2023-04-06T07:37:29;4.83;72.59
69281;SHT31;56392;51.082;17.080;2023-04-06T07:42:53;5.10;69.28
69281;SHT31;56392;51.082;17.080;2023-04-06T07:48:17;5.36;67.29
69281;SHT31;56392;51.082;17.080;2023-04-06T07:53:41;5.60;65.19
69281;SHT31;56392;51.082;17.080;2023-04-06T07:59:04;5.87;62.37
69281;SHT31;56392;51.082;17.080;2023-04-06T08:04:27;6.15;60.74
69281;SHT31;56392;51.082;17.080;2023-04-06T08:09:52;6.20;61.36
69281;SHT31;56392;51.082;17.080;2023-04-06T08:15:15;6.39;61.53
69281;SHT31;56392;51.082;17.080;2023-04-06T08:20:40;6.54;59.22
69281;SHT31;56392;51.082;17.080;2023-04-06T08:26:04;6.73;55.47
69281;SHT31;56392;51.082;17.080;2023-04-06T08:31:27;6.73;55.17
69281;SHT31;56392;51.082;17.080;2023-04-06T08:36:51;6.81;54.64
69281;SHT31;56392;51.082;17.080;2023-04-06T08:42:19;6.92;53.44
69281;SHT31;56392;51.082;17.080;2023-04-06T08:47:42;7.15;53.90
69281;SHT31;56392;51.082;17.080;2023-04-06T08:53:06;7.43;53.01
69281;SHT31;56392;51.082;17.080;2023-04-06T08:58:33;7.69;51.42
69281;SHT31;56392;51.082;17.080;2023-04-06T09:03:58;7.72;47.81
69281;SHT31;56392;51.082;17.080;2023-04-06T09:09:21;7.83;50.19
69281;SHT31;56392;51.082;17.080;2023-04-06T09:14:48;7.93;49.71
69281;SHT31;56392;51.082;17.080;2023-04-06T09:20:12;7.86;49.54
69281;SHT31;56392;51.082;17.080;2023-04-06T09:25:36;8.00;49.92
69281;SHT31;56392;51.082;17.080;2023-04-06T09:31:00;8.04;47.21
69281;SHT31;56392;51.082;17.080;2023-04-06T09:36:30;8.03;47.34
69281;SHT31;56392;51.082;17.080;2023-04-06T09:41:53;7.95;48.05
69281;SHT31;56392;51.082;17.080;2023-04-06T09:47:21;8.10;48.10
69281;SHT31;56392;51.082;17.080;2023-04-06T09:52:47;8.38;49.11
69281;SHT31;56392;51.082;17.080;2023-04-06T09:58:13;8.44;46.92
69281;SHT31;56392;51.082;17.080;2023-04-06T10:03:51;8.31;45.69
69281;SHT31;56392;51.082;17.080;2023-04-06T10:09:15;8.30;47.60
69281;SHT31;56392;51.082;17.080;2023-04-06T10:14:39;8.28;45.46
69281;SHT31;56392;51.082;17.080;2023-04-06T10:20:08;8.18;45.34
69281;SHT31;56392;51.082;17.080;2023-04-06T10:25:34;8.23;45.72
69281;SHT31;56392;51.082;17.080;2023-04-06T10:30:59;8.40;45.97
69281;SHT31;56392;51.082;17.080;2023-04-06T10:36:27;8.25;46.79
69281;SHT31;56392;51.082;17.080;2023-04-06T10:41:50;8.15;46.60
69281;SHT31;56392;51.082;17.080;2023-04-06T10:47:17;8.18;45.88
69281;SHT31;56392;51.082;17.080;2023-04-06T10:52:41;8.35;46.90
69281;SHT31;56392;51.082;17.080;2023-04-06T10:58:06;8.45;44.60
69281;SHT31;56392;51.082;17.080;2023-04-06T11:03:29;8.46;44.83
69281;SHT31;56392;51.082;17.080;2023-04-06T11:08:55;8.40;43.44
69281;SHT31;56392;51.082;17.080;2023-04-06T11:14:19;8.25;44.45
69281;SHT31;56392;51.082;17.080;2023-04-06T11:19:42;8.20;44.12
69281;SHT31;56392;51.082;17.080;2023-04-06T11:25:07;8.18;44.83
69281;SHT31;56392;51.082;17.080;2023-04-06T11:30:31;8.23;46.00
69281;SHT31;56392;51.082;17.080;2023-04-06T11:35:57;8.31;45.54
69281;SHT31;56392;51.082;17.080;2023-04-06T11:41:24;8.10;44.69
69281;SHT31;56392;51.082;17.080;2023-04-06T11:46:52;8.03;45.33
69281;SHT31;56392;51.082;17.080;2023-04-06T11:52:16;8.20;46.37
69281;SHT31;56392;51.082;17.080;2023-04-06T11:57:41;8.35;46.42
69281;SHT31;56392;51.082;17.080;2023-04-06T12:03:05;8.45;43.53
69281;SHT31;56392;51.082;17.080;2023-04-06T12:08:28;8.18;43.86
69281;SHT31;56392;51.082;17.080;2023-04-06T12:13:53;8.08;44.42
69281;SHT31;56392;51.082;17.080;2023-04-06T12:19:16;8.34;45.89
69281;SHT31;56392;51.082;17.080;2023-04-06T12:24:39;8.45;45.10
69281;SHT31;56392;51.082;17.080;2023-04-06T12:30:05;8.44;43.83
69281;SHT31;56392;51.082;17.080;2023-04-06T12:35:28;8.35;44.15
69281;SHT31;56392;51.082;17.080;2023-04-06T12:40:53;8.41;43.76
69281;SHT31;56392;51.082;17.080;2023-04-06T12:46:17;8.42;44.64
69281;SHT31;56392;51.082;17.080;2023-04-06T12:51:41;8.44;44.13
69281;SHT31;56392;51.082;17.080;2023-04-06T12:57:04;8.46;44.29
69281;SHT31;56392;51.082;17.080;2023-04-06T13:02:29;8.52;44.99
69281;SHT31;56392;51.082;17.080;2023-04-06T13:07:53;8.37;42.03
69281;SHT31;56392;51.082;17.080;2023-04-06T13:13:16;8.40;43.77
69281;SHT31;56392;51.082;17.080;2023-04-06T13:18:43;8.45;42.80
69281;SHT31;56392;51.082;17.080;2023-04-06T13:24:06;8.48;42.69
69281;SHT31;56392;51.082;17.080;2023-04-06T13:29:29;8.37;41.18
69281;SHT31;56392;51.082;17.080;2023-04-06T13:34:55;8.48;43.32
69281;SHT31;56392;51.082;17.080;2023-04-06T13:40:19;8.52;41.40
69281;SHT31;56392;51.082;17.080;2023-04-06T13:45:48;8.51;42.51
69281;SHT31;56392;51.082;17.080;2023-04-06T13:51:16;8.61;42.18
69281;SHT31;56392;51.082;17.080;2023-04-06T13:56:39;8.65;42.99
69281;SHT31;56392;51.082;17.080;2023-04-06T14:02:02;8.66;43.12
69281;SHT31;56392;51.082;17.080;2023-04-06T14:07:27;8.58;43.43
69281;SHT31;56392;51.082;17.080;2023-04-06T14:12:51;8.58;44.59
69281;SHT31;56392;51.082;17.080;2023-04-06T14:18:15;8.55;43.78
69281;SHT31;56392;51.082;17.080;2023-04-06T14:23:39;8.51;43.55
69281;SHT31;56392;51.082;17.080;2023-04-06T14:29:03;8.58;43.80
69281;SHT31;56392;51.082;17.080;2023-04-06T14:34:26;8.58;44.61
69281;SHT31;56392;51.082;17.080;2023-04-06T14:39:51;8.59;43.92
69281;SHT31;56392;51.082;17.080;2023-04-06T14:45:14;8.66;43.96
69281;SHT31;56392;51.082;17.080;2023-04-06T14:50:38;8.56;43.70
69281;SHT31;56392;51.082;17.080;2023-04-06T14:56:09;8.55;44.20
69281;SHT31;56392;51.082;17.080;2023-04-06T15:01:34;8.58;43.25
69281;SHT31;56392;51.082;17.080;2023-04-06T15:06:57;8.58;44.97
69281;SHT31;56392;51.082;17.080;2023-04-06T15:12:22;8.64;44.40
69281;SHT31;56392;51.082;17.080;2023-04-06T15:17:45;8.73;44.44
69281;SHT31;56392;51.082;17.080;2023-04-06T15:23:08;8.66;44.91
69281;SHT31;56392;51.082;17.080;2023-04-06T15:28:32;8.69;44.36
69281;SHT31;56392;51.082;17.080;2023-04-06T15:33:55;8.71;45.76
69281;SHT31;56392;51.082;17.080;2023-04-06T15:39:18;8.68;44.16
69281;SHT31;56392;51.082;17.080;2023-04-06T15:44:43;8.64;44.38
69281;SHT31;56392;51.082;17.080;2023-04-06T15:50:06;8.61;45.66
69281;SHT31;56392;51.082;17.080;2023-04-06T15:55:30;8.51;45.28
69281;SHT31;56392;51.082;17.080;2023-04-06T16:00:55;8.52;45.66
69281;SHT31;56392;51.082;17.080;2023-04-06T16:06:18;8.48;45.22
69281;SHT31;56392;51.082;17.080;2023-04-06T16:11:41;8.40;45.02
69281;SHT31;56392;51.082;17.080;2023-04-06T16:17:05;8.37;45.71
69281;SHT31;56392;51.082;17.080;2023-04-06T16:22:28;8.37;45.58
69281;SHT31;56392;51.082;17.080;2023-04-06T16:27:52;8.38;46.32
69281;SHT31;56392;51.082;17.080;2023-04-06T16:33:16;8.34;45.41
69281;SHT31;56392;51.082;17.080;2023-04-06T16:38:41;8.27;44.50
69281;SHT31;56392;51.082;17.080;2023-04-06T16:44:05;8.25;45.94
69281;SHT31;56392;51.082;17.080;2023-04-06T16:49:30;8.20;45.11
69281;SHT31;56392;51.082;17.080;2023-04-06T16:54:54;8.20;46.17
69281;SHT31;56392;51.082;17.080;2023-04-06T17:00:17;8.14;46.77
69281;SHT31;56392;51.082;17.080;2023-04-06T17:05:42;8.10;45.74
69281;SHT31;56392;51.082;17.080;2023-04-06T17:11:06;8.05;46.03
69281;SHT31;56392;51.082;17.080;2023-04-06T17:16:29;8.04;47.20
69281;SHT31;56392;51.082;17.080;2023-04-06T17:21:53;7.94;46.26
69281;SHT31;56392;51.082;17.080;2023-04-06T17:27:17;7.87;46.59
69281;SHT31;56392;51.082;17.080;2023-04-06T17:32:44;7.87;47.18
69281;SHT31;56392;51.082;17.080;2023-04-06T17:38:09;7.83;48.80
69281;SHT31;56392;51.082;17.080;2023-04-06T17:43:32;7.83;48.73
69281;SHT31;56392;51.082;17.080;2023-04-06T17:48:56;7.77;48.88
69281;SHT31;56392;51.082;17.080;2023-04-06T17:54:20;7.72;49.29
69281;SHT31;56392;51.082;17.080;2023-04-06T17:59:43;7.67;48.96
69281;SHT31;56392;51.082;17.080;2023-04-06T18:05:07;7.70;49.83
69281;SHT31;56392;51.082;17.080;2023-04-06T18:10:35;7.66;49.65
69281;SHT31;56392;51.082;17.080;2023-04-06T18:15:59;7.65;50.34
69281;SHT31;56392;51.082;17.080;2023-04-06T18:21:23;7.66;50.92
69281;SHT31;56392;51.082;17.080;2023-04-06T18:26:49;7.63;50.53
69281;SHT31;56392;51.082;17.080;2023-04-06T18:32:13;7.62;52.45
69281;SHT31;56392;51.082;17.080;2023-04-06T18:37:37;7.63;52.04
69281;SHT31;56392;51.082;17.080;2023-04-06T18:43:01;7.58;52.85
69281;SHT31;56392;51.082;17.080;2023-04-06T18:48:26;7.53;52.17
69281;SHT31;56392;51.082;17.080;2023-04-06T18:53:49;7.52;54.05
69281;SHT31;56392;51.082;17.080;2023-04-06T18:59:16;7.48;52.59
69281;SHT31;56392;51.082;17.080;2023-04-06T19:04:40;7.46;52.62
69281;SHT31;56392;51.082;17.080;2023-04-06T19:10:03;7.46;52.55
69281;SHT31;56392;51.082;17.080;2023-04-06T19:15:29;7.43;53.35
69281;SHT31;56392;51.082;17.080;2023-04-06T19:20:52;7.41;54.40
69281;SHT31;56392;51.082;17.080;2023-04-06T19:26:18;7.36;55.23
69281;SHT31;56392;51.082;17.080;2023-04-06T19:31:43;7.33;55.45
69281;SHT31;56392;51.082;17.080;2023-04-06T19:37:06;7.29;55.04
69281;SHT31;56392;51.082;17.080;2023-04-06T19:42:32;7.26;54.28
69281;SHT31;56392;51.082;17.080;2023-04-06T19:47:57;7.19;55.09
69281;SHT31;56392;51.082;17.080;2023-04-06T19:53:20;7.14;55.75
69281;SHT31;56392;51.082;17.080;2023-04-06T19:58:44;7.11;56.14
69281;SHT31;56392;51.082;17.080;2023-04-06T20:04:12;7.02;55.10
69281;SHT31;56392;51.082;17.080;2023-04-06T20:09:35;7.00;56.41
69281;SHT31;56392;51.082;17.080;2023-04-06T20:15:03;6.98;56.66
69281;SHT31;56392;51.082;17.080;2023-04-06T20:20:27;6.94;56.66
69281;SHT31;56392;51.082;17.080;2023-04-06T20:25:50;6.94;55.68
69281;SHT31;56392;51.082;17.080;2023-04-06T20:31:13;6.92;55.42
69281;SHT31;56392;51.082;17.080;2023-04-06T20:36:38;6.91;56.55
69281;SHT31;56392;51.082;17.080;2023-04-06T20:42:01;6.92;56.65
69281;SHT31;56392;51.082;17.080;2023-04-06T20:47:25;6.94;56.32
69281;SHT31;56392;51.082;17.080;2023-04-06T20:52:49;6.91;57.13
69281;SHT31;56392;51.082;17.080;2023-04-06T20:58:14;6.92;57.04
69281;SHT31;56392;51.082;17.080;2023-04-06T21:03:41;6.94;55.83
69281;SHT31;56392;51.082;17.080;2023-04-06T21:09:06;6.92;55.94
69281;SHT31;56392;51.082;17.080;2023-04-06T21:14:29;6.94;55.70
69281;SHT31;56392;51.082;17.080;2023-04-06T21:19:52;6.95;55.71
69281;SHT31;56392;51.082;17.080;2023-04-06T21:25:17;6.95;55.56
69281;SHT31;56392;51.082;17.080;2023-04-06T21:30:40;6.94;54.60
69281;SHT31;56392;51.082;17.080;2023-04-06T21:36:04;6.91;55.17
69281;SHT31;56392;51.082;17.080;2023-04-06T21:41:30;6.85;54.49
69281;SHT31;56392;51.082;17.080;2023-04-06T21:46:54;6.87;54.62
69281;SHT31;56392;51.082;17.080;2023-04-06T21:52:17;6.83;55.30
69281;SHT31;56392;51.082;17.080;2023-04-06T21:57:41;6.80;54.55
69281;SHT31;56392;51.082;17.080;2023-04-06T22:03:05;6.79;55.22
69281;SHT31;56392;51.082;17.080;2023-04-06T22:08:29;6.85;54.94
69281;SHT31;56392;51.082;17.080;2023-04-06T22:13:53;6.85;55.13
69281;SHT31;56392;51.082;17.080;2023-04-06T22:19:16;6.88;55.18
69281;SHT31;56392;51.082;17.080;2023-04-06T22:24:39;6.88;54.32
69281;SHT31;56392;51.082;17.080;2023-04-06T22:30:05;6.83;56.48
69281;SHT31;56392;51.082;17.080;2023-04-06T22:35:28;6.80;56.11
69281;SHT31;56392;51.082;17.080;2023-04-06T22:40:51;6.77;57.10
69281;SHT31;56392;51.082;17.080;2023-04-06T22:46:16;6.77;56.86
69281;SHT31;56392;51.082;17.080;2023-04-06T22:51:39;6.73;57.15
69281;SHT31;56392;51.082;17.080;2023-04-06T22:57:03;6.67;56.35
69281;SHT31;56392;51.082;17.080;2023-04-06T23:02:28;6.60;56.91
69281;SHT31;56392;51.082;17.080;2023-04-06T23:07:51;6.49;57.81
69281;SHT31;56392;51.082;17.080;2023-04-06T23:13:15;6.36;59.94
69281;SHT31;56392;51.082;17.080;2023-04-06T23:18:39;6.29;59.51
69281;SHT31;56392;51.082;17.080;2023-04-06T23:24:02;6.28;60.77
69281;SHT31;56392;51.082;17.080;2023-04-06T23:29:25;6.16;61.64
69281;SHT31;56392;51.082;17.080;2023-04-06T23:34:50;6.01;63.67
69281;SHT31;56392;51.082;17.080;2023-04-06T23:40:13;5.99;63.45
69281;SHT31;56392;51.082;17.080;2023-04-06T23:45:38;6.01;63.95
69281;SHT31;56392;51.082;17.080;2023-04-06T23:51:03;5.99;65.79
69281;SHT31;56392;51.082;17.080;2023-04-06T23:56:26;6.03;66.04
